createdAt,value
2023-02-12T00:00:36.337Z,2.78
2023-02-12T00:05:33.920Z,2.58
2023-02-12T00:10:34.257Z,2.69
2023-02-12T00:15:32.038Z,2.73
2023-02-12T00:20:32.477Z,2.79
2023-02-12T00:25:32.284Z,2.83
2023-02-12T00:30:33.822Z,2.34
2023-02-12T00:35:32.165Z,2.20
2023-02-12T00:40:35.043Z,2.16
2023-02-12T00:45:32.432Z,2.20
2023-02-12T00:50:31.807Z,2.15
2023-02-12T00:55:35.931Z,2.38
2023-02-12T01:00:32.890Z,2.33
2023-02-12T01:05:32.428Z,2.16
2023-02-12T01:10:32.967Z,2.45
2023-02-12T01:15:32.025Z,2.32
2023-02-12T01:20:29.100Z,2.25
2023-02-12T01:25:25.791Z,2.39
2023-02-12T01:30:27.295Z,2.42
2023-02-12T01:35:27.862Z,2.14
2023-02-12T01:40:24.745Z,2.07
2023-02-12T01:45:59.377Z,1.81
2023-02-12T01:51:02.376Z,1.93
2023-02-12T01:56:01.574Z,1.68
2023-02-12T02:00:59.355Z,1.77
2023-02-12T02:05:59.541Z,2.01
2023-02-12T02:10:56.973Z,1.98
2023-02-12T02:15:56.995Z,1.97
2023-02-12T02:21:14.590Z,2.12
2023-02-12T02:26:26.351Z,1.94
2023-02-12T02:31:26.948Z,1.99
2023-02-12T02:36:27.854Z,2.19
2023-02-12T02:41:29.233Z,2.10
2023-02-12T02:46:30.355Z,2.08
2023-02-12T02:51:30.047Z,2.00
2023-02-12T02:56:27.889Z,1.98
2023-02-12T03:01:29.075Z,2.16
2023-02-12T03:06:29.266Z,2.13
2023-02-12T03:11:27.476Z,2.25
2023-02-12T03:16:26.390Z,2.18
2023-02-12T03:21:28.170Z,2.15
2023-02-12T03:26:29.149Z,2.14
2023-02-12T03:31:31.465Z,2.09
2023-02-12T03:36:33.913Z,2.17
2023-02-12T03:41:32.604Z,2.13
2023-02-12T03:46:37.181Z,2.00
2023-02-12T03:51:35.690Z,2.13
2023-02-12T03:56:35.043Z,2.06
2023-02-12T04:01:33.327Z,1.94
2023-02-12T04:06:30.052Z,1.99
2023-02-12T04:11:34.119Z,1.81
2023-02-12T04:16:37.864Z,2.01
2023-02-12T04:21:43.561Z,1.96
2023-02-12T04:26:46.833Z,1.81
2023-02-12T04:31:47.624Z,1.99
2023-02-12T04:36:46.431Z,1.88
2023-02-12T04:41:43.096Z,2.06
2023-02-12T04:46:39.862Z,2.32
2023-02-12T04:51:37.172Z,2.14
2023-02-12T04:56:33.854Z,1.73
2023-02-12T05:01:31.531Z,1.90
2023-02-12T05:06:29.723Z,2.03
2023-02-12T05:11:27.153Z,1.86
2023-02-12T05:16:23.925Z,1.82
2023-02-12T05:21:20.983Z,1.78
2023-02-12T05:26:18.310Z,1.95
2023-02-12T05:31:19.985Z,1.93
2023-02-12T05:36:19.021Z,1.83
2023-02-12T05:41:16.785Z,1.88
2023-02-12T05:46:14.018Z,1.90
2023-02-12T05:51:12.403Z,1.98
2023-02-12T05:56:10.444Z,1.93
2023-02-12T06:01:10.999Z,2.09
2023-02-12T06:06:08.147Z,1.96
2023-02-12T06:11:06.515Z,2.11
2023-02-12T06:16:03.703Z,1.99
2023-02-12T06:21:00.629Z,2.31
2023-02-12T06:25:57.972Z,2.53
2023-02-12T06:30:55.685Z,2.82
2023-02-12T06:35:52.462Z,2.85
2023-02-12T06:40:49.383Z,2.63
2023-02-12T06:45:46.305Z,2.46
2023-02-12T06:50:43.670Z,2.62
2023-02-12T06:55:42.610Z,2.68
2023-02-12T07:00:39.453Z,2.71
2023-02-12T07:05:39.200Z,2.71
2023-02-12T07:10:36.508Z,2.60
2023-02-12T07:15:38.618Z,2.72
2023-02-12T07:20:35.328Z,2.73
2023-02-12T07:25:32.044Z,2.67
2023-02-12T07:30:32.411Z,2.80
2023-02-12T07:35:31.111Z,2.42
2023-02-12T07:40:28.041Z,2.42
2023-02-12T07:45:30.394Z,2.41
2023-02-12T07:50:28.105Z,2.48
2023-02-12T07:55:27.215Z,2.39
2023-02-12T08:00:23.867Z,2.29
2023-02-12T08:05:20.742Z,2.08
2023-02-12T08:10:31.397Z,2.18
2023-02-12T08:15:28.995Z,2.22
2023-02-12T08:20:25.697Z,2.34
2023-02-12T08:25:23.066Z,2.33
2023-02-12T08:30:22.728Z,2.39
2023-02-12T08:35:22.471Z,2.54
2023-02-12T08:40:19.551Z,2.50
2023-02-12T08:45:17.114Z,2.82
2023-02-12T08:50:13.854Z,2.59
2023-02-12T08:55:22.916Z,2.59
2023-02-12T09:00:21.246Z,2.65
2023-02-12T09:05:18.085Z,2.89
2023-02-12T09:10:15.178Z,2.77
2023-02-12T09:15:12.172Z,2.87
2023-02-12T09:20:10.632Z,2.96
2023-02-12T09:25:10.260Z,3.03
2023-02-12T09:30:07.849Z,3.17
2023-02-12T09:35:05.164Z,3.15
2023-02-12T09:40:04.252Z,3.03
2023-02-12T09:45:06.252Z,3.00
2023-02-12T09:50:13.249Z,3.11
2023-02-12T09:55:14.316Z,3.22
2023-02-12T10:00:20.354Z,3.14
2023-02-12T10:05:19.306Z,3.16
2023-02-12T10:10:28.988Z,3.18
2023-02-12T10:15:32.592Z,3.21
2023-02-12T10:20:47.173Z,3.01
2023-02-12T10:25:48.081Z,3.20
2023-02-12T10:30:48.449Z,3.36
2023-02-12T10:35:49.481Z,3.22
2023-02-12T10:40:47.131Z,3.34
2023-02-12T10:45:44.562Z,3.24
2023-02-12T10:50:47.059Z,3.60
2023-02-12T10:55:43.881Z,3.53
2023-02-12T11:00:41.461Z,3.71
2023-02-12T11:05:39.150Z,3.52
2023-02-12T11:10:38.976Z,3.61
2023-02-12T11:15:38.463Z,3.49
2023-02-12T11:20:38.753Z,3.54
2023-02-12T11:25:36.463Z,3.65
2023-02-12T11:30:33.536Z,3.60
2023-02-12T11:35:35.666Z,3.83
2023-02-12T11:40:33.450Z,3.76
2023-02-12T11:45:32.859Z,3.86
2023-02-12T11:50:30.762Z,4.08
2023-02-12T11:55:33.515Z,4.00
2023-02-12T12:00:33.261Z,3.89
2023-02-12T12:05:32.000Z,3.81
2023-02-12T12:10:34.063Z,4.19
2023-02-12T12:15:51.821Z,4.32
2023-02-12T12:20:54.827Z,4.26
2023-02-12T12:25:52.665Z,4.25
2023-02-12T12:30:56.924Z,4.26
2023-02-12T12:36:00.585Z,4.31
2023-02-12T12:41:02.768Z,4.43
2023-02-12T12:46:09.935Z,4.32
2023-02-12T12:51:15.437Z,4.47
2023-02-12T12:56:35.951Z,4.38
2023-02-12T13:01:40.013Z,4.47
2023-02-12T13:06:41.909Z,4.53
2023-02-12T13:11:42.742Z,4.47
2023-02-12T13:16:44.447Z,4.52
2023-02-12T13:21:46.188Z,4.51
2023-02-12T13:26:45.838Z,4.63
2023-02-12T13:31:45.486Z,4.50
2023-02-12T13:36:43.190Z,4.67
2023-02-12T13:41:41.825Z,4.61
2023-02-12T13:46:43.815Z,4.70
2023-02-12T13:51:43.029Z,4.67
2023-02-12T13:56:41.532Z,4.74
2023-02-12T14:01:45.071Z,4.82
2023-02-12T14:06:54.924Z,4.76
2023-02-12T14:11:53.194Z,4.71
2023-02-12T14:16:49.952Z,4.73
2023-02-12T14:21:49.347Z,4.76
2023-02-12T14:26:46.912Z,4.79
2023-02-12T14:31:43.817Z,4.85
2023-02-12T14:36:43.222Z,4.84
2023-02-12T14:41:43.004Z,5.01
2023-02-12T14:46:45.150Z,5.02
2023-02-12T14:51:44.648Z,4.89
2023-02-12T14:56:45.291Z,4.88
2023-02-12T15:01:44.886Z,4.86
2023-02-12T15:06:44.011Z,4.76
2023-02-12T15:11:43.554Z,4.72
2023-02-12T15:16:45.905Z,4.68
2023-02-12T15:21:45.742Z,4.85
2023-02-12T15:26:44.849Z,4.64
2023-02-12T15:31:42.049Z,4.62
2023-02-12T15:36:41.582Z,4.65
2023-02-12T15:41:39.730Z,4.56
2023-02-12T15:46:36.794Z,4.51
2023-02-12T15:51:35.450Z,4.55
2023-02-12T15:56:33.666Z,4.55
2023-02-12T16:01:32.743Z,4.70
2023-02-12T16:06:31.968Z,4.50
2023-02-12T16:11:32.998Z,4.47
2023-02-12T16:16:30.370Z,4.17
2023-02-12T16:21:29.513Z,4.23
2023-02-12T16:26:26.928Z,4.16
2023-02-12T16:31:25.638Z,4.16
2023-02-12T16:36:32.157Z,4.12
2023-02-12T16:41:30.493Z,4.29
2023-02-12T16:46:28.107Z,4.26
2023-02-12T16:51:27.847Z,4.27
2023-02-12T16:56:25.979Z,4.45
2023-02-12T17:01:23.886Z,4.37
2023-02-12T17:06:21.132Z,4.22
2023-02-12T17:11:18.643Z,4.34
2023-02-12T17:16:29.415Z,4.24
2023-02-12T17:21:28.647Z,4.00
2023-02-12T17:26:25.414Z,4.40
2023-02-12T17:31:24.080Z,4.45
2023-02-12T17:36:21.075Z,4.29
2023-02-12T17:41:18.035Z,4.16
2023-02-12T17:46:18.242Z,4.29
2023-02-12T17:51:20.687Z,4.46
2023-02-12T17:56:19.153Z,4.45
2023-02-12T18:01:16.829Z,4.55
2023-02-12T18:06:16.305Z,4.47
2023-02-12T18:11:14.127Z,4.52
2023-02-12T18:16:11.395Z,4.79
2023-02-12T18:21:17.637Z,4.93
2023-02-12T18:26:15.833Z,5.01
2023-02-12T18:31:15.935Z,5.10
2023-02-12T18:36:14.055Z,5.13
2023-02-12T18:41:12.354Z,5.13
2023-02-12T18:46:10.894Z,5.17
2023-02-12T18:51:08.355Z,5.17
2023-02-12T18:56:06.151Z,5.17
2023-02-12T19:01:12.617Z,5.18
2023-02-12T19:06:38.636Z,5.30
2023-02-12T19:11:49.764Z,5.30
2023-02-12T19:16:49.891Z,5.24
2023-02-12T19:21:50.144Z,5.26
2023-02-12T19:26:52.634Z,5.24
2023-02-12T19:32:10.893Z,5.04
2023-02-12T19:37:16.991Z,4.92
2023-02-12T19:42:18.750Z,4.89
2023-02-12T19:47:20.080Z,4.96
2023-02-12T19:52:20.606Z,4.95
2023-02-12T19:57:17.793Z,4.80
2023-02-12T20:02:14.652Z,4.58
2023-02-12T20:07:12.727Z,4.72
2023-02-12T20:12:11.697Z,4.70
2023-02-12T20:17:09.567Z,4.47
2023-02-12T20:22:06.478Z,4.59
2023-02-12T20:27:04.347Z,4.77
2023-02-12T20:32:02.422Z,4.78
2023-02-12T20:36:59.449Z,5.00
2023-02-12T20:41:56.378Z,4.96
2023-02-12T20:46:57.208Z,4.91
2023-02-12T20:51:54.356Z,4.60
2023-02-12T20:56:52.758Z,4.53
2023-02-12T21:01:49.602Z,4.17
2023-02-12T21:06:47.767Z,4.19
2023-02-12T21:11:45.267Z,4.16
2023-02-12T21:16:43.958Z,4.18
2023-02-12T21:21:41.693Z,4.38
2023-02-12T21:26:39.037Z,4.05
2023-02-12T21:31:36.868Z,4.14
2023-02-12T21:36:34.648Z,4.24
2023-02-12T21:41:34.188Z,4.42
2023-02-12T21:46:31.570Z,4.45
2023-02-12T21:51:29.934Z,4.37
2023-02-12T21:56:26.996Z,4.32
2023-02-12T22:01:24.628Z,4.24
2023-02-12T22:06:22.645Z,4.26
2023-02-12T22:11:21.724Z,4.36
2023-02-12T22:16:19.406Z,4.40
2023-02-12T22:21:16.962Z,4.34
2023-02-12T22:26:15.158Z,4.24
2023-02-12T22:31:13.389Z,4.36
2023-02-12T22:36:10.385Z,3.98
2023-02-12T22:41:09.010Z,3.85
2023-02-12T22:46:07.065Z,3.86
2023-02-12T22:51:07.800Z,3.81
2023-02-12T22:56:05.824Z,3.82
2023-02-12T23:01:09.702Z,3.62
2023-02-12T23:06:07.256Z,3.74
2023-02-12T23:11:05.935Z,3.76
2023-02-12T23:16:04.217Z,3.56
2023-02-12T23:21:01.713Z,3.61
2023-02-12T23:25:58.475Z,3.57
2023-02-12T23:30:58.600Z,3.69
2023-02-12T23:35:55.499Z,3.66
2023-02-12T23:40:52.836Z,3.82
2023-02-12T23:45:52.922Z,3.91
2023-02-12T23:50:52.229Z,4.14
2023-02-12T23:55:49.895Z,4.21
